sensor_id;sensor_type;location;lat;lon;timestamp;P1;durP1;ratioP1;P2;durP2;ratioP2
13404;SDS011;6773;51.192;7.024;2023-04-06T00:01:54;7.83;;;6.80;;
13404;SDS011;6773;51.192;7.024;2023-04-06T00:04:20;9.67;;;6.73;;
13404;SDS011;6773;51.192;7.024;2023-04-06T00:06:46;9.87;;;7.10;;
13404;SDS011;6773;51.192;7.024;2023-04-06T00:09:11;9.50;;;7.03;;
13404;SDS011;6773;51.192;7.024;2023-04-06T00:11:37;9.10;;;6.97;;
13404;SDS011;6773;51.192;7.024;2023-04-06T00:14:02;10.57;;;7.37;;
13404;SDS011;6773;51.192;7.024;2023-04-06T00:16:28;9.40;;;7.27;;
13404;SDS011;6773;51.192;7.024;2023-04-06T00:18:53;11.93;;;6.87;;
13404;SDS011;6773;51.192;7.024;2023-04-06T00:21:20;9.83;;;6.97;;
13404;SDS011;6773;51.192;7.024;2023-04-06T00:23:45;9.70;;;6.80;;
13404;SDS011;6773;51.192;7.024;2023-04-06T00:26:11;9.17;;;7.63;;
13404;SDS011;6773;51.192;7.024;2023-04-06T00:28:37;8.93;;;7.30;;
13404;SDS011;6773;51.192;7.024;2023-04-06T00:31:03;10.07;;;7.00;;
13404;SDS011;6773;51.192;7.024;2023-04-06T00:33:29;11.00;;;6.40;;
13404;SDS011;6773;51.192;7.024;2023-04-06T00:35:55;12.13;;;6.70;;
13404;SDS011;6773;51.192;7.024;2023-04-06T00:38:21;12.27;;;6.70;;
13404;SDS011;6773;51.192;7.024;2023-04-06T00:40:47;13.37;;;7.07;;
13404;SDS011;6773;51.192;7.024;2023-04-06T00:43:12;10.43;;;7.23;;
13404;SDS011;6773;51.192;7.024;2023-04-06T00:45:41;12.00;;;7.60;;
13404;SDS011;6773;51.192;7.024;2023-04-06T00:48:07;10.10;;;7.00;;
13404;SDS011;6773;51.192;7.024;2023-04-06T00:50:34;10.90;;;7.13;;
13404;SDS011;6773;51.192;7.024;2023-04-06T00:53:00;10.97;;;7.13;;
13404;SDS011;6773;51.192;7.024;2023-04-06T00:55:26;11.30;;;7.60;;
13404;SDS011;6773;51.192;7.024;2023-04-06T00:57:53;11.20;;;7.33;;
13404;SDS011;6773;51.192;7.024;2023-04-06T01:00:18;10.43;;;7.50;;
13404;SDS011;6773;51.192;7.024;2023-04-06T01:02:44;11.10;;;7.13;;
13404;SDS011;6773;51.192;7.024;2023-04-06T01:05:11;11.60;;;7.43;;
13404;SDS011;6773;51.192;7.024;2023-04-06T01:07:37;9.87;;;7.63;;
13404;SDS011;6773;51.192;7.024;2023-04-06T01:10:02;8.90;;;6.90;;
13404;SDS011;6773;51.192;7.024;2023-04-06T01:12:29;10.17;;;7.33;;
13404;SDS011;6773;51.192;7.024;2023-04-06T01:14:55;9.40;;;6.80;;
13404;SDS011;6773;51.192;7.024;2023-04-06T01:17:20;10.97;;;7.13;;
13404;SDS011;6773;51.192;7.024;2023-04-06T01:19:46;8.73;;;7.63;;
13404;SDS011;6773;51.192;7.024;2023-04-06T01:22:17;13.07;;;7.13;;
13404;SDS011;6773;51.192;7.024;2023-04-06T01:24:43;10.27;;;7.27;;
13404;SDS011;6773;51.192;7.024;2023-04-06T01:27:09;8.00;;;6.67;;
13404;SDS011;6773;51.192;7.024;2023-04-06T01:29:35;8.47;;;6.77;;
13404;SDS011;6773;51.192;7.024;2023-04-06T01:32:01;7.97;;;6.70;;
13404;SDS011;6773;51.192;7.024;2023-04-06T01:34:26;7.73;;;6.17;;
13404;SDS011;6773;51.192;7.024;2023-04-06T01:36:52;7.37;;;6.07;;
13404;SDS011;6773;51.192;7.024;2023-04-06T01:39:18;8.63;;;6.50;;
13404;SDS011;6773;51.192;7.024;2023-04-06T01:41:44;8.73;;;6.73;;
13404;SDS011;6773;51.192;7.024;2023-04-06T01:44:12;7.57;;;6.07;;
13404;SDS011;6773;51.192;7.024;2023-04-06T01:46:39;7.90;;;5.87;;
13404;SDS011;6773;51.192;7.024;2023-04-06T01:49:05;8.87;;;6.60;;
13404;SDS011;6773;51.192;7.024;2023-04-06T01:51:31;7.80;;;5.87;;
13404;SDS011;6773;51.192;7.024;2023-04-06T01:53:56;10.03;;;6.83;;
13404;SDS011;6773;51.192;7.024;2023-04-06T01:56:22;8.43;;;6.77;;
13404;SDS011;6773;51.192;7.024;2023-04-06T01:58:49;7.73;;;5.53;;
13404;SDS011;6773;51.192;7.024;2023-04-06T02:01:15;6.97;;;5.93;;
13404;SDS011;6773;51.192;7.024;2023-04-06T02:03:40;9.20;;;6.20;;
13404;SDS011;6773;51.192;7.024;2023-04-06T02:06:06;8.97;;;5.97;;
13404;SDS011;6773;51.192;7.024;2023-04-06T02:08:31;9.00;;;5.90;;
13404;SDS011;6773;51.192;7.024;2023-04-06T02:10:57;7.67;;;6.13;;
13404;SDS011;6773;51.192;7.024;2023-04-06T02:13:23;9.10;;;6.43;;
13404;SDS011;6773;51.192;7.024;2023-04-06T02:15:48;10.23;;;6.70;;
13404;SDS011;6773;51.192;7.024;2023-04-06T02:18:14;9.97;;;5.70;;
13404;SDS011;6773;51.192;7.024;2023-04-06T02:20:42;10.97;;;6.00;;
13404;SDS011;6773;51.192;7.024;2023-04-06T02:23:08;7.50;;;6.20;;
13404;SDS011;6773;51.192;7.024;2023-04-06T02:25:33;6.83;;;6.13;;
13404;SDS011;6773;51.192;7.024;2023-04-06T02:27:59;7.77;;;6.43;;
13404;SDS011;6773;51.192;7.024;2023-04-06T02:30:25;8.00;;;6.37;;
13404;SDS011;6773;51.192;7.024;2023-04-06T02:32:51;7.37;;;5.80;;
13404;SDS011;6773;51.192;7.024;2023-04-06T02:35:17;7.37;;;5.87;;
13404;SDS011;6773;51.192;7.024;2023-04-06T02:37:42;10.23;;;6.00;;
13404;SDS011;6773;51.192;7.024;2023-04-06T02:40:08;7.20;;;5.93;;
13404;SDS011;6773;51.192;7.024;2023-04-06T02:42:34;8.57;;;6.43;;
13404;SDS011;6773;51.192;7.024;2023-04-06T02:45:00;10.07;;;6.57;;
13404;SDS011;6773;51.192;7.024;2023-04-06T02:47:26;9.10;;;7.00;;
13404;SDS011;6773;51.192;7.024;2023-04-06T02:49:51;9.17;;;5.97;;
13404;SDS011;6773;51.192;7.024;2023-04-06T02:52:17;9.93;;;6.53;;
13404;SDS011;6773;51.192;7.024;2023-04-06T02:54:43;8.00;;;6.17;;
13404;SDS011;6773;51.192;7.024;2023-04-06T02:57:08;8.53;;;5.80;;
13404;SDS011;6773;51.192;7.024;2023-04-06T02:59:34;8.77;;;6.20;;
13404;SDS011;6773;51.192;7.024;2023-04-06T03:02:00;8.80;;;6.00;;
13404;SDS011;6773;51.192;7.024;2023-04-06T03:04:26;8.50;;;6.40;;
13404;SDS011;6773;51.192;7.024;2023-04-06T03:06:51;8.50;;;6.10;;
13404;SDS011;6773;51.192;7.024;2023-04-06T03:09:18;6.70;;;5.67;;
13404;SDS011;6773;51.192;7.024;2023-04-06T03:11:44;7.07;;;5.77;;
13404;SDS011;6773;51.192;7.024;2023-04-06T03:14:10;11.33;;;6.27;;
13404;SDS011;6773;51.192;7.024;2023-04-06T03:16:36;9.03;;;5.57;;
13404;SDS011;6773;51.192;7.024;2023-04-06T03:19:01;7.60;;;5.80;;
13404;SDS011;6773;51.192;7.024;2023-04-06T03:21:27;8.27;;;5.87;;
13404;SDS011;6773;51.192;7.024;2023-04-06T03:23:53;8.73;;;5.73;;
13404;SDS011;6773;51.192;7.024;2023-04-06T03:26:18;9.47;;;5.83;;
13404;SDS011;6773;51.192;7.024;2023-04-06T03:28:44;9.57;;;5.87;;
13404;SDS011;6773;51.192;7.024;2023-04-06T03:31:09;9.27;;;6.40;;
13404;SDS011;6773;51.192;7.024;2023-04-06T03:33:35;6.37;;;5.40;;
13404;SDS011;6773;51.192;7.024;2023-04-06T03:36:01;8.80;;;5.53;;
13404;SDS011;6773;51.192;7.024;2023-04-06T03:38:26;8.60;;;6.30;;
13404;SDS011;6773;51.192;7.024;2023-04-06T03:40:52;8.20;;;6.30;;
13404;SDS011;6773;51.192;7.024;2023-04-06T03:43:18;9.33;;;5.97;;
13404;SDS011;6773;51.192;7.024;2023-04-06T03:45:43;6.53;;;5.80;;
13404;SDS011;6773;51.192;7.024;2023-04-06T03:48:09;7.27;;;5.37;;
13404;SDS011;6773;51.192;7.024;2023-04-06T03:50:35;8.17;;;6.37;;
13404;SDS011;6773;51.192;7.024;2023-04-06T03:53:00;10.73;;;6.07;;
13404;SDS011;6773;51.192;7.024;2023-04-06T03:55:28;9.10;;;6.30;;
13404;SDS011;6773;51.192;7.024;2023-04-06T03:57:53;9.03;;;6.50;;
13404;SDS011;6773;51.192;7.024;2023-04-06T04:00:19;8.57;;;6.20;;
13404;SDS011;6773;51.192;7.024;2023-04-06T04:02:45;6.70;;;5.80;;
13404;SDS011;6773;51.192;7.024;2023-04-06T04:05:10;7.60;;;5.87;;
13404;SDS011;6773;51.192;7.024;2023-04-06T04:07:36;7.07;;;5.17;;
13404;SDS011;6773;51.192;7.024;2023-04-06T04:10:02;6.43;;;5.73;;
13404;SDS011;6773;51.192;7.024;2023-04-06T04:12:28;7.77;;;5.27;;
13404;SDS011;6773;51.192;7.024;2023-04-06T04:14:54;6.50;;;5.80;;
13404;SDS011;6773;51.192;7.024;2023-04-06T04:17:21;8.70;;;6.03;;
13404;SDS011;6773;51.192;7.024;2023-04-06T04:19:46;8.43;;;6.30;;
13404;SDS011;6773;51.192;7.024;2023-04-06T04:22:12;8.97;;;6.00;;
13404;SDS011;6773;51.192;7.024;2023-04-06T04:24:38;8.37;;;5.80;;
13404;SDS011;6773;51.192;7.024;2023-04-06T04:27:04;8.77;;;6.33;;
13404;SDS011;6773;51.192;7.024;2023-04-06T04:29:30;8.20;;;5.83;;
13404;SDS011;6773;51.192;7.024;2023-04-06T04:31:55;10.17;;;6.10;;
13404;SDS011;6773;51.192;7.024;2023-04-06T04:34:21;9.27;;;5.73;;
13404;SDS011;6773;51.192;7.024;2023-04-06T04:36:51;9.43;;;5.57;;
13404;SDS011;6773;51.192;7.024;2023-04-06T04:39:17;9.20;;;6.10;;
13404;SDS011;6773;51.192;7.024;2023-04-06T04:41:42;9.10;;;6.00;;
13404;SDS011;6773;51.192;7.024;2023-04-06T04:44:08;6.83;;;5.60;;
13404;SDS011;6773;51.192;7.024;2023-04-06T04:46:33;7.00;;;5.97;;
13404;SDS011;6773;51.192;7.024;2023-04-06T04:48:59;6.10;;;5.47;;
13404;SDS011;6773;51.192;7.024;2023-04-06T04:51:25;7.73;;;5.23;;
13404;SDS011;6773;51.192;7.024;2023-04-06T04:53:50;9.83;;;5.97;;
13404;SDS011;6773;51.192;7.024;2023-04-06T04:56:16;7.37;;;5.63;;
13404;SDS011;6773;51.192;7.024;2023-04-06T04:58:42;7.50;;;6.10;;
13404;SDS011;6773;51.192;7.024;2023-04-06T05:01:08;6.90;;;5.23;;
13404;SDS011;6773;51.192;7.024;2023-04-06T05:03:33;6.83;;;5.40;;
13404;SDS011;6773;51.192;7.024;2023-04-06T05:06:00;7.83;;;5.27;;
13404;SDS011;6773;51.192;7.024;2023-04-06T05:08:26;6.93;;;5.23;;
13404;SDS011;6773;51.192;7.024;2023-04-06T05:10:52;7.33;;;5.40;;
13404;SDS011;6773;51.192;7.024;2023-04-06T05:13:17;7.20;;;5.77;;
13404;SDS011;6773;51.192;7.024;2023-04-06T05:15:43;7.57;;;5.40;;
13404;SDS011;6773;51.192;7.024;2023-04-06T05:18:09;7.37;;;5.60;;
13404;SDS011;6773;51.192;7.024;2023-04-06T05:20:36;6.67;;;4.93;;
13404;SDS011;6773;51.192;7.024;2023-04-06T05:23:03;10.23;;;5.73;;
13404;SDS011;6773;51.192;7.024;2023-04-06T05:25:28;8.60;;;5.67;;
13404;SDS011;6773;51.192;7.024;2023-04-06T05:27:54;6.77;;;5.20;;
13404;SDS011;6773;51.192;7.024;2023-04-06T05:30:20;6.63;;;4.87;;
13404;SDS011;6773;51.192;7.024;2023-04-06T05:32:46;7.70;;;5.40;;
13404;SDS011;6773;51.192;7.024;2023-04-06T05:35:12;8.40;;;5.20;;
13404;SDS011;6773;51.192;7.024;2023-04-06T05:37:38;7.97;;;5.80;;
13404;SDS011;6773;51.192;7.024;2023-04-06T05:40:04;9.07;;;5.60;;
13404;SDS011;6773;51.192;7.024;2023-04-06T05:42:37;7.70;;;5.40;;
13404;SDS011;6773;51.192;7.024;2023-04-06T05:45:03;6.37;;;5.47;;
13404;SDS011;6773;51.192;7.024;2023-04-06T05:47:30;8.33;;;5.53;;
13404;SDS011;6773;51.192;7.024;2023-04-06T05:49:56;5.63;;;5.07;;
13404;SDS011;6773;51.192;7.024;2023-04-06T05:52:22;9.93;;;5.67;;
13404;SDS011;6773;51.192;7.024;2023-04-06T05:54:48;6.70;;;5.03;;
13404;SDS011;6773;51.192;7.024;2023-04-06T05:57:13;7.83;;;5.47;;
13404;SDS011;6773;51.192;7.024;2023-04-06T05:59:39;7.07;;;5.30;;
13404;SDS011;6773;51.192;7.024;2023-04-06T06:02:05;7.00;;;5.37;;
13404;SDS011;6773;51.192;7.024;2023-04-06T06:04:31;7.87;;;5.60;;
13404;SDS011;6773;51.192;7.024;2023-04-06T06:06:57;7.70;;;5.00;;
13404;SDS011;6773;51.192;7.024;2023-04-06T06:09:22;6.63;;;5.17;;
13404;SDS011;6773;51.192;7.024;2023-04-06T06:11:48;6.67;;;5.47;;
13404;SDS011;6773;51.192;7.024;2023-04-06T06:14:14;5.87;;;5.10;;
13404;SDS011;6773;51.192;7.024;2023-04-06T06:16:41;10.03;;;5.17;;
13404;SDS011;6773;51.192;7.024;2023-04-06T06:19:07;6.73;;;5.47;;
13404;SDS011;6773;51.192;7.024;2023-04-06T06:21:33;6.33;;;5.37;;
13404;SDS011;6773;51.192;7.024;2023-04-06T06:23:59;8.90;;;5.37;;
13404;SDS011;6773;51.192;7.024;2023-04-06T06:26:24;7.87;;;5.57;;
13404;SDS011;6773;51.192;7.024;2023-04-06T06:28:51;8.47;;;5.73;;
13404;SDS011;6773;51.192;7.024;2023-04-06T06:31:16;6.60;;;5.23;;
13404;SDS011;6773;51.192;7.024;2023-04-06T06:33:45;6.13;;;5.20;;
13404;SDS011;6773;51.192;7.024;2023-04-06T06:36:11;6.83;;;5.50;;
13404;SDS011;6773;51.192;7.024;2023-04-06T06:38:36;7.47;;;5.40;;
13404;SDS011;6773;51.192;7.024;2023-04-06T06:41:03;8.27;;;4.97;;
13404;SDS011;6773;51.192;7.024;2023-04-06T06:43:29;10.03;;;5.73;;
13404;SDS011;6773;51.192;7.024;2023-04-06T06:45:54;7.63;;;5.63;;
13404;SDS011;6773;51.192;7.024;2023-04-06T06:48:20;7.47;;;5.27;;
13404;SDS011;6773;51.192;7.024;2023-04-06T06:50:47;6.87;;;5.80;;
13404;SDS011;6773;51.192;7.024;2023-04-06T06:53:13;9.27;;;5.73;;
13404;SDS011;6773;51.192;7.024;2023-04-06T06:55:39;6.47;;;5.00;;
13404;SDS011;6773;51.192;7.024;2023-04-06T06:58:05;6.47;;;5.20;;
13404;SDS011;6773;51.192;7.024;2023-04-06T07:00:31;6.60;;;5.07;;
13404;SDS011;6773;51.192;7.024;2023-04-06T07:02:57;6.93;;;5.47;;
13404;SDS011;6773;51.192;7.024;2023-04-06T07:05:23;7.67;;;5.27;;
13404;SDS011;6773;51.192;7.024;2023-04-06T07:07:49;7.07;;;5.67;;
13404;SDS011;6773;51.192;7.024;2023-04-06T07:10:14;7.53;;;5.87;;
13404;SDS011;6773;51.192;7.024;2023-04-06T07:12:40;7.60;;;5.47;;
13404;SDS011;6773;51.192;7.024;2023-04-06T07:15:06;6.93;;;5.70;;
13404;SDS011;6773;51.192;7.024;2023-04-06T07:17:32;8.37;;;5.50;;
13404;SDS011;6773;51.192;7.024;2023-04-06T07:19:57;6.87;;;5.47;;
13404;SDS011;6773;51.192;7.024;2023-04-06T07:22:23;7.43;;;5.40;;
13404;SDS011;6773;51.192;7.024;2023-04-06T07:24:49;8.93;;;5.23;;
13404;SDS011;6773;51.192;7.024;2023-04-06T07:27:15;7.10;;;5.73;;
13404;SDS011;6773;51.192;7.024;2023-04-06T07:29:42;7.53;;;6.13;;
13404;SDS011;6773;51.192;7.024;2023-04-06T07:32:08;8.73;;;6.40;;
13404;SDS011;6773;51.192;7.024;2023-04-06T07:34:33;8.70;;;5.80;;
13404;SDS011;6773;51.192;7.024;2023-04-06T07:36:59;8.63;;;6.27;;
13404;SDS011;6773;51.192;7.024;2023-04-06T07:39:25;6.83;;;5.07;;
13404;SDS011;6773;51.192;7.024;2023-04-06T07:41:52;8.60;;;5.40;;
13404;SDS011;6773;51.192;7.024;2023-04-06T07:44:17;7.77;;;5.83;;
13404;SDS011;6773;51.192;7.024;2023-04-06T07:46:43;8.90;;;5.70;;
13404;SDS011;6773;51.192;7.024;2023-04-06T07:49:09;7.83;;;6.13;;
13404;SDS011;6773;51.192;7.024;2023-04-06T07:51:38;8.93;;;6.17;;
13404;SDS011;6773;51.192;7.024;2023-04-06T07:54:04;7.40;;;6.13;;
13404;SDS011;6773;51.192;7.024;2023-04-06T07:56:30;8.57;;;5.97;;
13404;SDS011;6773;51.192;7.024;2023-04-06T07:58:56;8.83;;;6.20;;
13404;SDS011;6773;51.192;7.024;2023-04-06T08:01:22;9.17;;;6.43;;
13404;SDS011;6773;51.192;7.024;2023-04-06T08:03:48;8.67;;;6.07;;
13404;SDS011;6773;51.192;7.024;2023-04-06T08:06:15;12.73;;;6.87;;
13404;SDS011;6773;51.192;7.024;2023-04-06T08:08:41;8.23;;;5.97;;
13404;SDS011;6773;51.192;7.024;2023-04-06T08:11:07;7.17;;;5.60;;
13404;SDS011;6773;51.192;7.024;2023-04-06T08:13:33;12.20;;;6.40;;
13404;SDS011;6773;51.192;7.024;2023-04-06T08:16:00;8.80;;;6.40;;
13404;SDS011;6773;51.192;7.024;2023-04-06T08:18:26;10.37;;;6.07;;
13404;SDS011;6773;51.192;7.024;2023-04-06T08:20:51;10.43;;;6.30;;
13404;SDS011;6773;51.192;7.024;2023-04-06T08:23:17;11.00;;;6.70;;
13404;SDS011;6773;51.192;7.024;2023-04-06T08:25:43;8.67;;;6.40;;
13404;SDS011;6773;51.192;7.024;2023-04-06T08:28:08;8.27;;;6.60;;
13404;SDS011;6773;51.192;7.024;2023-04-06T08:30:34;7.77;;;6.33;;
13404;SDS011;6773;51.192;7.024;2023-04-06T08:33:00;10.73;;;6.40;;
13404;SDS011;6773;51.192;7.024;2023-04-06T08:35:27;7.83;;;5.93;;
13404;SDS011;6773;51.192;7.024;2023-04-06T08:37:53;9.93;;;6.80;;
13404;SDS011;6773;51.192;7.024;2023-04-06T08:40:18;10.67;;;7.23;;
13404;SDS011;6773;51.192;7.024;2023-04-06T08:42:44;11.40;;;7.00;;
13404;SDS011;6773;51.192;7.024;2023-04-06T08:45:24;10.17;;;7.17;;
13404;SDS011;6773;51.192;7.024;2023-04-06T08:47:50;8.73;;;6.63;;
13404;SDS011;6773;51.192;7.024;2023-04-06T08:50:17;10.87;;;6.70;;
13404;SDS011;6773;51.192;7.024;2023-04-06T08:52:44;10.40;;;6.60;;
13404;SDS011;6773;51.192;7.024;2023-04-06T08:55:12;9.90;;;6.90;;
13404;SDS011;6773;51.192;7.024;2023-04-06T08:57:38;9.43;;;7.23;;
13404;SDS011;6773;51.192;7.024;2023-04-06T09:00:06;10.10;;;7.53;;
13404;SDS011;6773;51.192;7.024;2023-04-06T09:02:36;9.83;;;7.00;;
13404;SDS011;6773;51.192;7.024;2023-04-06T09:05:04;10.40;;;7.10;;
13404;SDS011;6773;51.192;7.024;2023-04-06T09:07:30;11.03;;;8.00;;
13404;SDS011;6773;51.192;7.024;2023-04-06T09:09:56;13.47;;;8.17;;
13404;SDS011;6773;51.192;7.024;2023-04-06T09:12:22;12.93;;;8.77;;
13404;SDS011;6773;51.192;7.024;2023-04-06T09:14:49;15.77;;;9.23;;
13404;SDS011;6773;51.192;7.024;2023-04-06T09:17:25;13.37;;;7.53;;
13404;SDS011;6773;51.192;7.024;2023-04-06T09:19:52;11.53;;;7.30;;
13404;SDS011;6773;51.192;7.024;2023-04-06T09:22:18;11.53;;;8.10;;
13404;SDS011;6773;51.192;7.024;2023-04-06T09:24:46;10.53;;;7.20;;
13404;SDS011;6773;51.192;7.024;2023-04-06T09:27:12;11.10;;;7.83;;
13404;SDS011;6773;51.192;7.024;2023-04-06T09:29:38;10.53;;;7.63;;
13404;SDS011;6773;51.192;7.024;2023-04-06T09:32:05;12.23;;;8.10;;
13404;SDS011;6773;51.192;7.024;2023-04-06T09:34:32;13.67;;;8.57;;
13404;SDS011;6773;51.192;7.024;2023-04-06T09:36:59;14.67;;;8.43;;
13404;SDS011;6773;51.192;7.024;2023-04-06T09:39:24;14.00;;;9.43;;
13404;SDS011;6773;51.192;7.024;2023-04-06T09:41:51;13.63;;;8.73;;
13404;SDS011;6773;51.192;7.024;2023-04-06T09:44:19;12.93;;;9.20;;
13404;SDS011;6773;51.192;7.024;2023-04-06T09:46:45;13.60;;;8.70;;
13404;SDS011;6773;51.192;7.024;2023-04-06T09:49:12;13.23;;;9.07;;
13404;SDS011;6773;51.192;7.024;2023-04-06T09:51:45;12.10;;;8.33;;
13404;SDS011;6773;51.192;7.024;2023-04-06T09:54:15;12.17;;;8.53;;
13404;SDS011;6773;51.192;7.024;2023-04-06T09:59:37;12.83;;;8.53;;
13404;SDS011;6773;51.192;7.024;2023-04-06T10:08:13;12.77;;;7.73;;
13404;SDS011;6773;51.192;7.024;2023-04-06T10:10:40;12.07;;;7.97;;
13404;SDS011;6773;51.192;7.024;2023-04-06T10:13:07;12.80;;;8.20;;
13404;SDS011;6773;51.192;7.024;2023-04-06T10:15:36;12.43;;;8.43;;
13404;SDS011;6773;51.192;7.024;2023-04-06T10:18:03;11.90;;;8.10;;
13404;SDS011;6773;51.192;7.024;2023-04-06T10:20:39;12.43;;;8.30;;
13404;SDS011;6773;51.192;7.024;2023-04-06T10:23:13;13.57;;;8.17;;
13404;SDS011;6773;51.192;7.024;2023-04-06T10:25:58;13.20;;;8.03;;
13404;SDS011;6773;51.192;7.024;2023-04-06T10:28:25;12.87;;;7.87;;
13404;SDS011;6773;51.192;7.024;2023-04-06T10:30:58;12.97;;;8.70;;
13404;SDS011;6773;51.192;7.024;2023-04-06T10:33:26;11.77;;;8.10;;
13404;SDS011;6773;51.192;7.024;2023-04-06T10:35:53;13.07;;;8.73;;
13404;SDS011;6773;51.192;7.024;2023-04-06T10:38:20;15.40;;;8.53;;
13404;SDS011;6773;51.192;7.024;2023-04-06T10:40:47;13.90;;;8.70;;
13404;SDS011;6773;51.192;7.024;2023-04-06T10:43:19;11.90;;;8.20;;
13404;SDS011;6773;51.192;7.024;2023-04-06T10:45:56;12.77;;;8.80;;
13404;SDS011;6773;51.192;7.024;2023-04-06T10:48:24;11.47;;;8.00;;
13404;SDS011;6773;51.192;7.024;2023-04-06T10:50:51;11.40;;;7.93;;
13404;SDS011;6773;51.192;7.024;2023-04-06T10:53:21;11.97;;;7.93;;
13404;SDS011;6773;51.192;7.024;2023-04-06T10:55:49;11.13;;;8.00;;
13404;SDS011;6773;51.192;7.024;2023-04-06T10:58:15;14.73;;;9.27;;
13404;SDS011;6773;51.192;7.024;2023-04-06T11:00:44;14.17;;;9.43;;
13404;SDS011;6773;51.192;7.024;2023-04-06T11:03:11;16.27;;;9.97;;
13404;SDS011;6773;51.192;7.024;2023-04-06T11:05:36;13.73;;;9.40;;
13404;SDS011;6773;51.192;7.024;2023-04-06T11:08:02;13.87;;;9.03;;
13404;SDS011;6773;51.192;7.024;2023-04-06T11:10:28;14.50;;;9.30;;
13404;SDS011;6773;51.192;7.024;2023-04-06T11:12:55;15.23;;;9.83;;
13404;SDS011;6773;51.192;7.024;2023-04-06T11:15:21;16.00;;;9.77;;
13404;SDS011;6773;51.192;7.024;2023-04-06T11:17:47;15.03;;;10.27;;
13404;SDS011;6773;51.192;7.024;2023-04-06T11:20:14;14.27;;;10.10;;
13404;SDS011;6773;51.192;7.024;2023-04-06T11:22:52;17.93;;;9.60;;
13404;SDS011;6773;51.192;7.024;2023-04-06T11:25:18;16.70;;;10.03;;
13404;SDS011;6773;51.192;7.024;2023-04-06T11:27:44;18.30;;;10.67;;
13404;SDS011;6773;51.192;7.024;2023-04-06T11:30:12;17.07;;;10.20;;
13404;SDS011;6773;51.192;7.024;2023-04-06T11:32:39;16.03;;;10.13;;
13404;SDS011;6773;51.192;7.024;2023-04-06T11:35:27;16.90;;;10.17;;
13404;SDS011;6773;51.192;7.024;2023-04-06T11:37:57;15.97;;;9.83;;
13404;SDS011;6773;51.192;7.024;2023-04-06T11:40:23;18.17;;;11.00;;
13404;SDS011;6773;51.192;7.024;2023-04-06T11:42:53;15.57;;;10.10;;
13404;SDS011;6773;51.192;7.024;2023-04-06T11:45:19;14.67;;;10.17;;
13404;SDS011;6773;51.192;7.024;2023-04-06T11:47:44;14.70;;;10.00;;
13404;SDS011;6773;51.192;7.024;2023-04-06T11:50:11;14.33;;;9.10;;
13404;SDS011;6773;51.192;7.024;2023-04-06T11:52:40;18.30;;;10.50;;
13404;SDS011;6773;51.192;7.024;2023-04-06T11:55:10;13.30;;;9.83;;
13404;SDS011;6773;51.192;7.024;2023-04-06T11:57:38;13.07;;;9.40;;
13404;SDS011;6773;51.192;7.024;2023-04-06T12:00:04;16.00;;;10.30;;
13404;SDS011;6773;51.192;7.024;2023-04-06T12:02:31;14.23;;;9.30;;
13404;SDS011;6773;51.192;7.024;2023-04-06T12:04:57;13.17;;;8.83;;
13404;SDS011;6773;51.192;7.024;2023-04-06T12:07:22;16.77;;;10.10;;
13404;SDS011;6773;51.192;7.024;2023-04-06T12:09:48;15.73;;;10.33;;
13404;SDS011;6773;51.192;7.024;2023-04-06T12:12:14;16.30;;;9.40;;
13404;SDS011;6773;51.192;7.024;2023-04-06T12:14:39;16.13;;;10.07;;
13404;SDS011;6773;51.192;7.024;2023-04-06T12:17:05;16.83;;;10.33;;
13404;SDS011;6773;51.192;7.024;2023-04-06T12:19:30;14.80;;;9.40;;
13404;SDS011;6773;51.192;7.024;2023-04-06T12:21:56;13.13;;;9.27;;
13404;SDS011;6773;51.192;7.024;2023-04-06T12:24:22;15.00;;;9.60;;
13404;SDS011;6773;51.192;7.024;2023-04-06T12:26:48;14.77;;;10.17;;
13404;SDS011;6773;51.192;7.024;2023-04-06T12:29:14;15.13;;;9.30;;
13404;SDS011;6773;51.192;7.024;2023-04-06T12:31:40;18.80;;;9.17;;
13404;SDS011;6773;51.192;7.024;2023-04-06T12:34:07;15.07;;;9.27;;
13404;SDS011;6773;51.192;7.024;2023-04-06T12:36:33;15.10;;;8.80;;
13404;SDS011;6773;51.192;7.024;2023-04-06T12:38:59;11.10;;;8.60;;
13404;SDS011;6773;51.192;7.024;2023-04-06T12:41:26;15.57;;;9.10;;
13404;SDS011;6773;51.192;7.024;2023-04-06T12:43:52;15.13;;;9.30;;
13404;SDS011;6773;51.192;7.024;2023-04-06T12:46:18;16.13;;;10.70;;
13404;SDS011;6773;51.192;7.024;2023-04-06T12:48:44;13.73;;;9.07;;
13404;SDS011;6773;51.192;7.024;2023-04-06T12:51:10;12.00;;;9.00;;
13404;SDS011;6773;51.192;7.024;2023-04-06T12:53:35;16.93;;;11.17;;
13404;SDS011;6773;51.192;7.024;2023-04-06T12:56:02;16.30;;;9.40;;
13404;SDS011;6773;51.192;7.024;2023-04-06T12:58:36;14.07;;;9.87;;
13404;SDS011;6773;51.192;7.024;2023-04-06T13:01:05;13.83;;;10.03;;
13404;SDS011;6773;51.192;7.024;2023-04-06T13:03:31;15.27;;;10.23;;
13404;SDS011;6773;51.192;7.024;2023-04-06T13:05:58;13.50;;;10.30;;
13404;SDS011;6773;51.192;7.024;2023-04-06T13:08:25;15.87;;;9.70;;
13404;SDS011;6773;51.192;7.024;2023-04-06T13:10:52;16.43;;;9.50;;
13404;SDS011;6773;51.192;7.024;2023-04-06T13:13:25;17.00;;;9.57;;
13404;SDS011;6773;51.192;7.024;2023-04-06T13:15:52;15.60;;;9.23;;
13404;SDS011;6773;51.192;7.024;2023-04-06T13:18:18;15.50;;;9.83;;
13404;SDS011;6773;51.192;7.024;2023-04-06T13:20:46;19.03;;;9.17;;
13404;SDS011;6773;51.192;7.024;2023-04-06T13:23:12;15.90;;;9.30;;
13404;SDS011;6773;51.192;7.024;2023-04-06T13:25:39;12.57;;;8.10;;
13404;SDS011;6773;51.192;7.024;2023-04-06T13:28:05;13.43;;;7.97;;
13404;SDS011;6773;51.192;7.024;2023-04-06T13:30:30;13.10;;;8.57;;
13404;SDS011;6773;51.192;7.024;2023-04-06T13:32:56;15.60;;;8.40;;
13404;SDS011;6773;51.192;7.024;2023-04-06T13:35:21;13.23;;;8.47;;
13404;SDS011;6773;51.192;7.024;2023-04-06T13:37:47;13.27;;;8.53;;
13404;SDS011;6773;51.192;7.024;2023-04-06T13:40:13;12.77;;;8.43;;
13404;SDS011;6773;51.192;7.024;2023-04-06T13:42:39;13.00;;;8.30;;
13404;SDS011;6773;51.192;7.024;2023-04-06T13:45:09;10.53;;;7.90;;
13404;SDS011;6773;51.192;7.024;2023-04-06T13:47:34;11.23;;;7.30;;
13404;SDS011;6773;51.192;7.024;2023-04-06T13:50:01;13.20;;;7.10;;
13404;SDS011;6773;51.192;7.024;2023-04-06T13:52:27;10.37;;;6.37;;
13404;SDS011;6773;51.192;7.024;2023-04-06T13:54:53;10.47;;;6.50;;
13404;SDS011;6773;51.192;7.024;2023-04-06T13:57:18;10.43;;;6.63;;
13404;SDS011;6773;51.192;7.024;2023-04-06T13:59:44;9.83;;;6.97;;
13404;SDS011;6773;51.192;7.024;2023-04-06T14:02:10;9.50;;;6.83;;
13404;SDS011;6773;51.192;7.024;2023-04-06T14:04:36;8.87;;;5.83;;
13404;SDS011;6773;51.192;7.024;2023-04-06T14:07:02;8.57;;;5.80;;
13404;SDS011;6773;51.192;7.024;2023-04-06T14:09:28;8.90;;;6.27;;
13404;SDS011;6773;51.192;7.024;2023-04-06T14:11:54;8.07;;;5.83;;
13404;SDS011;6773;51.192;7.024;2023-04-06T14:14:21;7.83;;;6.17;;
13404;SDS011;6773;51.192;7.024;2023-04-06T14:16:47;8.43;;;6.20;;
13404;SDS011;6773;51.192;7.024;2023-04-06T14:19:14;9.20;;;6.57;;
13404;SDS011;6773;51.192;7.024;2023-04-06T14:21:44;8.53;;;6.07;;
13404;SDS011;6773;51.192;7.024;2023-04-06T14:24:10;8.37;;;5.40;;
13404;SDS011;6773;51.192;7.024;2023-04-06T14:26:37;7.23;;;5.90;;
13404;SDS011;6773;51.192;7.024;2023-04-06T14:29:04;8.97;;;6.27;;
13404;SDS011;6773;51.192;7.024;2023-04-06T14:31:30;10.20;;;6.00;;
13404;SDS011;6773;51.192;7.024;2023-04-06T14:33:56;7.93;;;6.17;;
13404;SDS011;6773;51.192;7.024;2023-04-06T14:36:22;10.10;;;6.23;;
13404;SDS011;6773;51.192;7.024;2023-04-06T14:38:52;9.10;;;6.27;;
13404;SDS011;6773;51.192;7.024;2023-04-06T14:41:18;10.03;;;6.03;;
13404;SDS011;6773;51.192;7.024;2023-04-06T14:43:47;10.77;;;6.80;;
13404;SDS011;6773;51.192;7.024;2023-04-06T14:46:13;10.90;;;5.63;;
13404;SDS011;6773;51.192;7.024;2023-04-06T14:48:41;8.77;;;5.70;;
13404;SDS011;6773;51.192;7.024;2023-04-06T14:51:06;7.70;;;5.57;;
13404;SDS011;6773;51.192;7.024;2023-04-06T14:53:32;9.27;;;6.40;;
13404;SDS011;6773;51.192;7.024;2023-04-06T14:55:58;10.13;;;6.17;;
13404;SDS011;6773;51.192;7.024;2023-04-06T14:58:24;7.17;;;5.43;;
13404;SDS011;6773;51.192;7.024;2023-04-06T15:00:57;7.53;;;5.37;;